sensor_id;sensor_type;location;lat;lon;timestamp;pressure;altitude;pressure_sealevel;temperature;humidity
62011;BME280;47967;51.756;10.174;2023-04-30T04:01:47;100467.22;;;3.79;89.70
62011;BME280;47967;51.756;10.174;2023-04-30T04:05:50;100472.88;;;3.76;89.48
62011;BME280;47967;51.756;10.174;2023-04-30T04:09:53;100475.13;;;3.71;89.72
62011;BME280;47967;51.756;10.174;2023-04-30T04:13:56;100468.50;;;3.65;89.24
62011;BME280;47967;51.756;10.174;2023-04-30T04:18:00;100481.53;;;3.59;89.02
62011;BME280;47967;51.756;10.174;2023-04-30T04:22:03;100487.72;;;3.59;89.33
62011;BME280;47967;51.756;10.174;2023-04-30T04:26:05;100496.31;;;3.73;89.58
62011;BME280;47967;51.756;10.174;2023-04-30T04:30:09;100502.19;;;3.66;89.05
62011;BME280;47967;51.756;10.174;2023-04-30T04:34:14;100503.94;;;3.36;87.51
62011;BME280;47967;51.756;10.174;2023-04-30T04:38:17;100501.50;;;3.24;86.93
62011;BME280;47967;51.756;10.174;2023-04-30T04:42:19;100502.88;;;3.18;86.65
62011;BME280;47967;51.756;10.174;2023-04-30T04:46:23;100513.34;;;3.31;86.52
62011;BME280;47967;51.756;10.174;2023-04-30T04:50:27;100518.72;;;3.50;86.77
62011;BME280;47967;51.756;10.174;2023-04-30T04:54:29;100530.13;;;3.62;86.59
62011;BME280;47967;51.756;10.174;2023-04-30T04:58:32;100523.44;;;3.78;86.45
62011;BME280;47967;51.756;10.174;2023-04-30T05:02:35;100518.69;;;3.91;86.05
62011;BME280;47967;51.756;10.174;2023-04-30T05:06:39;100516.44;;;4.06;85.65
62011;BME280;47967;51.756;10.174;2023-04-30T05:10:42;100517.56;;;4.23;85.42
62011;BME280;47967;51.756;10.174;2023-04-30T05:14:45;100524.63;;;4.34;85.54
62011;BME280;47967;51.756;10.174;2023-04-30T05:18:49;100530.25;;;4.41;84.87
62011;BME280;47967;51.756;10.174;2023-04-30T05:22:53;100541.91;;;4.59;85.13
62011;BME280;47967;51.756;10.174;2023-04-30T05:26:56;100543.16;;;4.75;85.05
62011;BME280;47967;51.756;10.174;2023-04-30T05:30:59;100533.41;;;4.93;84.43
62011;BME280;47967;51.756;10.174;2023-04-30T05:35:01;100546.59;;;5.15;84.04
62011;BME280;47967;51.756;10.174;2023-04-30T05:39:05;100541.00;;;5.36;83.63
62011;BME280;47967;51.756;10.174;2023-04-30T05:43:08;100544.19;;;5.49;83.20
62011;BME280;47967;51.756;10.174;2023-04-30T05:47:10;100542.56;;;5.66;82.72
62011;BME280;47967;51.756;10.174;2023-04-30T05:51:13;100544.06;;;5.79;82.02
62011;BME280;47967;51.756;10.174;2023-04-30T05:55:17;100543.09;;;5.98;81.70
62011;BME280;47967;51.756;10.174;2023-04-30T05:59:20;100537.41;;;6.11;81.19
62011;BME280;47967;51.756;10.174;2023-04-30T06:03:22;100526.94;;;6.35;81.60
62011;BME280;47967;51.756;10.174;2023-04-30T06:07:25;100530.81;;;6.59;81.59
62011;BME280;47967;51.756;10.174;2023-04-30T06:11:30;100527.25;;;6.77;81.28
62011;BME280;47967;51.756;10.174;2023-04-30T06:15:32;100523.63;;;6.86;80.67
62011;BME280;47967;51.756;10.174;2023-04-30T06:19:35;100525.59;;;7.02;80.01
62011;BME280;47967;51.756;10.174;2023-04-30T06:23:39;100528.19;;;7.20;78.44
62011;BME280;47967;51.756;10.174;2023-04-30T06:27:42;100525.66;;;7.45;76.85
62011;BME280;47967;51.756;10.174;2023-04-30T06:31:45;100528.69;;;7.50;75.05
62011;BME280;47967;51.756;10.174;2023-04-30T06:35:48;100527.22;;;7.64;72.26
62011;BME280;47967;51.756;10.174;2023-04-30T06:39:51;100526.13;;;7.83;71.08
62011;BME280;47967;51.756;10.174;2023-04-30T06:43:55;100526.66;;;8.03;69.04
62011;BME280;47967;51.756;10.174;2023-04-30T06:47:58;100534.94;;;8.10;68.88
62011;BME280;47967;51.756;10.174;2023-04-30T06:52:01;100522.34;;;8.18;68.20
62011;BME280;47967;51.756;10.174;2023-04-30T06:56:04;100534.66;;;8.46;67.65
62011;BME280;47967;51.756;10.174;2023-04-30T07:00:09;100523.59;;;8.57;67.07
62011;BME280;47967;51.756;10.174;2023-04-30T07:04:11;100536.00;;;8.67;66.41
62011;BME280;47967;51.756;10.174;2023-04-30T07:08:14;100536.00;;;8.91;65.69
62011;BME280;47967;51.756;10.174;2023-04-30T07:12:16;100530.28;;;8.94;65.40
62011;BME280;47967;51.756;10.174;2023-04-30T07:16:21;100529.75;;;9.07;64.60
62011;BME280;47967;51.756;10.174;2023-04-30T07:20:23;100532.69;;;9.37;65.10
62011;BME280;47967;51.756;10.174;2023-04-30T07:24:26;100532.19;;;9.42;64.02
62011;BME280;47967;51.756;10.174;2023-04-30T07:28:29;100528.00;;;9.39;63.58
62011;BME280;47967;51.756;10.174;2023-04-30T07:32:33;100529.78;;;9.55;62.99
62011;BME280;47967;51.756;10.174;2023-04-30T07:36:36;100521.44;;;9.73;62.61
62011;BME280;47967;51.756;10.174;2023-04-30T07:40:39;100524.41;;;9.87;62.54
62011;BME280;47967;51.756;10.174;2023-04-30T07:44:42;100532.41;;;9.72;61.04
62011;BME280;47967;51.756;10.174;2023-04-30T07:48:46;100531.81;;;9.85;60.74
62011;BME280;47967;51.756;10.174;2023-04-30T07:52:48;100525.72;;;10.22;60.73
62011;BME280;47967;51.756;10.174;2023-04-30T07:56:51;100528.69;;;10.04;59.70
62011;BME280;47967;51.756;10.174;2023-04-30T08:00:56;100527.91;;;10.50;60.31
62011;BME280;47967;51.756;10.174;2023-04-30T08:05:00;100531.44;;;10.51;62.08
62011;BME280;47967;51.756;10.174;2023-04-30T08:09:04;100522.25;;;10.60;59.76
62011;BME280;47967;51.756;10.174;2023-04-30T08:13:06;100534.78;;;10.53;60.86
62011;BME280;47967;51.756;10.174;2023-04-30T08:17:09;100536.72;;;10.67;60.88
62011;BME280;47967;51.756;10.174;2023-04-30T08:21:14;100535.19;;;10.88;59.50
62011;BME280;47967;51.756;10.174;2023-04-30T08:25:17;100534.78;;;10.76;60.21
62011;BME280;47967;51.756;10.174;2023-04-30T08:29:19;100525.03;;;10.90;58.04
62011;BME280;47967;51.756;10.174;2023-04-30T08:33:22;100521.34;;;11.21;58.81
62011;BME280;47967;51.756;10.174;2023-04-30T08:37:26;100523.84;;;11.23;59.65
62011;BME280;47967;51.756;10.174;2023-04-30T08:41:31;100519.84;;;11.33;58.18
62011;BME280;47967;51.756;10.174;2023-04-30T08:45:35;100518.44;;;11.37;58.90
62011;BME280;47967;51.756;10.174;2023-04-30T08:49:37;100521.34;;;11.66;58.58
62011;BME280;47967;51.756;10.174;2023-04-30T08:53:43;100508.75;;;11.58;58.03
62011;BME280;47967;51.756;10.174;2023-04-30T08:57:46;100517.41;;;11.68;56.69
62011;BME280;47967;51.756;10.174;2023-04-30T09:01:49;100519.25;;;11.68;57.06
62011;BME280;47967;51.756;10.174;2023-04-30T09:05:54;100521.34;;;11.66;54.65
62011;BME280;47967;51.756;10.174;2023-04-30T09:09:59;100525.38;;;11.92;54.59
62011;BME280;47967;51.756;10.174;2023-04-30T09:14:01;100519.63;;;12.16;53.54
62011;BME280;47967;51.756;10.174;2023-04-30T09:18:06;100526.75;;;12.39;53.63
62011;BME280;47967;51.756;10.174;2023-04-30T09:22:19;100527.56;;;12.61;53.36
62011;BME280;47967;51.756;10.174;2023-04-30T09:26:32;100524.88;;;12.61;52.71
62011;BME280;47967;51.756;10.174;2023-04-30T09:30:35;100527.69;;;12.53;53.79
62011;BME280;47967;51.756;10.174;2023-04-30T09:34:38;100522.56;;;12.37;53.65
62011;BME280;47967;51.756;10.174;2023-04-30T09:38:41;100525.66;;;12.33;53.12
62011;BME280;47967;51.756;10.174;2023-04-30T09:42:58;100516.16;;;12.66;53.19
62011;BME280;47967;51.756;10.174;2023-04-30T09:47:01;100508.03;;;12.94;52.28
62011;BME280;47967;51.756;10.174;2023-04-30T09:51:04;100511.84;;;13.00;53.86
62011;BME280;47967;51.756;10.174;2023-04-30T09:55:07;100515.88;;;12.82;52.72
62011;BME280;47967;51.756;10.174;2023-04-30T09:59:11;100495.53;;;12.93;52.74
62011;BME280;47967;51.756;10.174;2023-04-30T10:03:15;100496.28;;;13.09;53.55
62011;BME280;47967;51.756;10.174;2023-04-30T10:07:19;100496.03;;;13.04;51.32
62011;BME280;47967;51.756;10.174;2023-04-30T10:11:27;100493.59;;;13.16;52.75
62011;BME280;47967;51.756;10.174;2023-04-30T10:15:39;100499.53;;;13.33;52.75
62011;BME280;47967;51.756;10.174;2023-04-30T10:19:46;100489.19;;;13.43;52.53
62011;BME280;47967;51.756;10.174;2023-04-30T10:23:50;100483.66;;;13.65;52.50
62011;BME280;47967;51.756;10.174;2023-04-30T10:27:53;100483.25;;;13.26;50.82
62011;BME280;47967;51.756;10.174;2023-04-30T10:31:57;100473.38;;;13.47;51.83
62011;BME280;47967;51.756;10.174;2023-04-30T10:36:04;100469.44;;;13.56;51.75
62011;BME280;47967;51.756;10.174;2023-04-30T10:40:09;100464.66;;;13.58;49.44
62011;BME280;47967;51.756;10.174;2023-04-30T10:44:11;100463.22;;;13.69;50.21
62011;BME280;47967;51.756;10.174;2023-04-30T10:48:16;100458.66;;;13.76;48.97
62011;BME280;47967;51.756;10.174;2023-04-30T10:52:25;100465.63;;;13.43;48.22
62011;BME280;47967;51.756;10.174;2023-04-30T10:56:29;100448.16;;;13.53;47.46
62011;BME280;47967;51.756;10.174;2023-04-30T11:00:32;100467.19;;;13.73;47.76
62011;BME280;47967;51.756;10.174;2023-04-30T11:05:09;100446.53;;;13.72;46.47
62011;BME280;47967;51.756;10.174;2023-04-30T11:09:12;100444.72;;;13.92;47.15
62011;BME280;47967;51.756;10.174;2023-04-30T11:13:15;100437.63;;;13.85;45.16
62011;BME280;47967;51.756;10.174;2023-04-30T11:17:21;100431.22;;;14.26;48.85
62011;BME280;47967;51.756;10.174;2023-04-30T11:21:25;100425.16;;;14.17;45.61
62011;BME280;47967;51.756;10.174;2023-04-30T11:25:38;100415.31;;;14.23;46.51
62011;BME280;47967;51.756;10.174;2023-04-30T11:29:42;100413.03;;;14.47;45.98
62011;BME280;47967;51.756;10.174;2023-04-30T11:33:47;100410.72;;;14.57;46.15
62011;BME280;47967;51.756;10.174;2023-04-30T11:37:54;100422.03;;;14.40;45.14
62011;BME280;47967;51.756;10.174;2023-04-30T11:42:00;100424.09;;;14.25;46.06
62011;BME280;47967;51.756;10.174;2023-04-30T11:46:05;100403.41;;;14.51;46.95
62011;BME280;47967;51.756;10.174;2023-04-30T11:50:10;100398.50;;;15.13;45.43
62011;BME280;47967;51.756;10.174;2023-04-30T11:54:14;100387.72;;;14.93;45.79
62011;BME280;47967;51.756;10.174;2023-04-30T11:58:18;100389.44;;;14.54;45.61
62011;BME280;47967;51.756;10.174;2023-04-30T12:02:21;100386.06;;;14.79;43.94
62011;BME280;47967;51.756;10.174;2023-04-30T12:06:25;100391.66;;;14.97;44.43
62011;BME280;47967;51.756;10.174;2023-04-30T12:10:31;100388.25;;;15.15;42.40
62011;BME280;47967;51.756;10.174;2023-04-30T12:14:34;100377.44;;;15.02;41.21
62011;BME280;47967;51.756;10.174;2023-04-30T12:18:37;100378.41;;;15.21;40.20
62011;BME280;47967;51.756;10.174;2023-04-30T12:22:40;100372.66;;;15.43;42.90
62011;BME280;47967;51.756;10.174;2023-04-30T12:26:44;100378.00;;;15.56;39.87
62011;BME280;47967;51.756;10.174;2023-04-30T12:30:48;100380.06;;;15.67;39.03
62011;BME280;47967;51.756;10.174;2023-04-30T12:34:56;100365.88;;;15.59;38.90
62011;BME280;47967;51.756;10.174;2023-04-30T12:39:05;100372.53;;;15.63;38.91
62011;BME280;47967;51.756;10.174;2023-04-30T12:43:14;100363.91;;;15.34;38.70
62011;BME280;47967;51.756;10.174;2023-04-30T12:47:17;100376.50;;;15.28;38.43
62011;BME280;47967;51.756;10.174;2023-04-30T12:51:19;100370.41;;;15.33;39.43
62011;BME280;47967;51.756;10.174;2023-04-30T12:55:22;100365.66;;;15.21;36.21
62011;BME280;47967;51.756;10.174;2023-04-30T12:59:26;100365.66;;;15.21;39.19
62011;BME280;47967;51.756;10.174;2023-04-30T13:03:28;100354.78;;;15.21;38.62
62011;BME280;47967;51.756;10.174;2023-04-30T13:07:36;100358.13;;;15.17;38.29
62011;BME280;47967;51.756;10.174;2023-04-30T13:11:39;100339.69;;;15.64;38.56
62011;BME280;47967;51.756;10.174;2023-04-30T13:15:43;100340.13;;;15.61;36.88
62011;BME280;47967;51.756;10.174;2023-04-30T13:19:46;100332.25;;;15.46;38.46
62011;BME280;47967;51.756;10.174;2023-04-30T13:23:49;100338.41;;;15.67;37.13
62011;BME280;47967;51.756;10.174;2023-04-30T13:27:54;100329.38;;;15.41;35.74
62011;BME280;47967;51.756;10.174;2023-04-30T13:31:59;100331.84;;;15.43;34.96
62011;BME280;47967;51.756;10.174;2023-04-30T13:36:01;100324.00;;;15.60;34.72
62011;BME280;47967;51.756;10.174;2023-04-30T13:40:05;100327.22;;;15.50;34.95
62011;BME280;47967;51.756;10.174;2023-04-30T13:44:08;100319.91;;;15.82;34.66
62011;BME280;47967;51.756;10.174;2023-04-30T13:48:12;100304.13;;;16.16;34.24
62011;BME280;47967;51.756;10.174;2023-04-30T13:52:15;100288.09;;;16.08;33.26
62011;BME280;47967;51.756;10.174;2023-04-30T13:56:17;100307.81;;;16.04;32.88
62011;BME280;47967;51.756;10.174;2023-04-30T14:00:20;100317.13;;;15.89;32.50
62011;BME280;47967;51.756;10.174;2023-04-30T14:04:24;100298.59;;;16.05;31.60
62011;BME280;47967;51.756;10.174;2023-04-30T14:08:26;100302.19;;;16.42;32.27
62011;BME280;47967;51.756;10.174;2023-04-30T14:12:29;100296.06;;;16.28;31.85
62011;BME280;47967;51.756;10.174;2023-04-30T14:16:31;100283.59;;;16.58;31.04
62011;BME280;47967;51.756;10.174;2023-04-30T14:20:36;100287.09;;;16.65;31.43
62011;BME280;47967;51.756;10.174;2023-04-30T14:24:38;100281.16;;;16.87;32.73
62011;BME280;47967;51.756;10.174;2023-04-30T14:28:41;100274.41;;;17.08;33.14
62011;BME280;47967;51.756;10.174;2023-04-30T14:32:44;100284.66;;;16.94;31.29
62011;BME280;47967;51.756;10.174;2023-04-30T14:36:48;100265.19;;;17.09;31.58
62011;BME280;47967;51.756;10.174;2023-04-30T14:40:50;100255.94;;;17.52;32.34
62011;BME280;47967;51.756;10.174;2023-04-30T14:44:53;100269.97;;;17.25;31.44
62011;BME280;47967;51.756;10.174;2023-04-30T14:48:55;100253.34;;;17.15;31.28
62011;BME280;47967;51.756;10.174;2023-04-30T14:53:00;100264.94;;;17.10;32.07
62011;BME280;47967;51.756;10.174;2023-04-30T14:57:02;100264.44;;;17.32;32.99
62011;BME280;47967;51.756;10.174;2023-04-30T15:01:06;100247.56;;;18.01;32.31
62011;BME280;47967;51.756;10.174;2023-04-30T15:05:09;100246.00;;;17.58;32.67
62011;BME280;47967;51.756;10.174;2023-04-30T15:09:13;100239.84;;;17.63;32.90
62011;BME280;47967;51.756;10.174;2023-04-30T15:13:16;100230.34;;;17.65;32.35
62011;BME280;47967;51.756;10.174;2023-04-30T15:17:18;100242.22;;;18.30;32.18
62011;BME280;47967;51.756;10.174;2023-04-30T15:21:21;100219.47;;;18.94;32.33
62011;BME280;47967;51.756;10.174;2023-04-30T15:25:25;100226.50;;;18.90;29.27
62011;BME280;47967;51.756;10.174;2023-04-30T15:29:27;100222.91;;;19.01;30.15
62011;BME280;47967;51.756;10.174;2023-04-30T15:33:30;100220.13;;;19.13;29.42
62011;BME280;47967;51.756;10.174;2023-04-30T15:37:34;100219.75;;;18.81;30.42
62011;BME280;47967;51.756;10.174;2023-04-30T15:41:38;100219.09;;;19.02;29.55
62011;BME280;47967;51.756;10.174;2023-04-30T15:45:41;100224.91;;;19.06;28.75
62011;BME280;47967;51.756;10.174;2023-04-30T15:49:46;100207.91;;;18.75;28.55
62011;BME280;47967;51.756;10.174;2023-04-30T15:53:49;100207.41;;;18.78;29.85
62011;BME280;47967;51.756;10.174;2023-04-30T15:57:53;100196.81;;;19.11;28.43
62011;BME280;47967;51.756;10.174;2023-04-30T16:01:55;100211.41;;;18.87;27.93
62011;BME280;47967;51.756;10.174;2023-04-30T16:05:58;100199.94;;;19.02;28.30
62011;BME280;47967;51.756;10.174;2023-04-30T16:10:02;100213.75;;;18.67;28.26
62011;BME280;47967;51.756;10.174;2023-04-30T16:14:06;100196.53;;;18.66;28.01
62011;BME280;47967;51.756;10.174;2023-04-30T16:18:09;100201.00;;;18.20;28.07
62011;BME280;47967;51.756;10.174;2023-04-30T16:22:11;100191.63;;;18.39;28.49
62011;BME280;47967;51.756;10.174;2023-04-30T16:26:14;100192.22;;;17.94;30.17
62011;BME280;47967;51.756;10.174;2023-04-30T16:30:19;100192.16;;;18.01;29.75
62011;BME280;47967;51.756;10.174;2023-04-30T16:34:21;100171.38;;;18.00;29.84
62011;BME280;47967;51.756;10.174;2023-04-30T16:38:24;100185.03;;;18.00;30.53
62011;BME280;47967;51.756;10.174;2023-04-30T16:42:27;100171.84;;;18.08;31.48
62011;BME280;47967;51.756;10.174;2023-04-30T16:46:31;100163.47;;;18.27;32.19
62011;BME280;47967;51.756;10.174;2023-04-30T16:50:35;100166.47;;;18.26;31.86
62011;BME280;47967;51.756;10.174;2023-04-30T16:54:38;100162.97;;;18.42;32.12
62011;BME280;47967;51.756;10.174;2023-04-30T16:58:41;100164.00;;;18.12;31.72
62011;BME280;47967;51.756;10.174;2023-04-30T17:02:45;100166.28;;;18.03;32.15
62011;BME280;47967;51.756;10.174;2023-04-30T17:06:49;100164.13;;;18.05;32.69
62011;BME280;47967;51.756;10.174;2023-04-30T17:10:52;100156.66;;;18.13;33.13
62011;BME280;47967;51.756;10.174;2023-04-30T17:14:54;100166.47;;;18.14;33.87
62011;BME280;47967;51.756;10.174;2023-04-30T17:18:59;100157.72;;;18.12;33.87
62011;BME280;47967;51.756;10.174;2023-04-30T17:23:01;100161.00;;;18.14;34.28
62011;BME280;47967;51.756;10.174;2023-04-30T17:27:04;100164.97;;;17.82;34.61
62011;BME280;47967;51.756;10.174;2023-04-30T17:31:06;100166.50;;;17.66;34.87
62011;BME280;47967;51.756;10.174;2023-04-30T17:35:11;100172.53;;;17.56;35.14
62011;BME280;47967;51.756;10.174;2023-04-30T17:39:14;100169.81;;;17.68;35.13
62011;BME280;47967;51.756;10.174;2023-04-30T17:43:16;100168.72;;;17.34;36.08
62011;BME280;47967;51.756;10.174;2023-04-30T17:47:19;100165.47;;;17.01;36.20
62011;BME280;47967;51.756;10.174;2023-04-30T17:51:24;100179.19;;;16.27;38.02
62011;BME280;47967;51.756;10.174;2023-04-30T17:55:29;100189.03;;;15.65;39.58
62011;BME280;47967;51.756;10.174;2023-04-30T17:59:32;100175.09;;;15.30;40.72
62011;BME280;47967;51.756;10.174;2023-04-30T18:03:35;100178.06;;;14.96;41.03
62011;BME280;47967;51.756;10.174;2023-04-30T18:07:39;100179.09;;;14.56;42.40
62011;BME280;47967;51.756;10.174;2023-04-30T18:11:41;100179.38;;;14.35;42.56
62011;BME280;47967;51.756;10.174;2023-04-30T18:15:44;100183.88;;;13.96;43.33
62011;BME280;47967;51.756;10.174;2023-04-30T18:19:47;100182.88;;;13.83;44.13
62011;BME280;47967;51.756;10.174;2023-04-30T18:23:52;100179.78;;;13.53;44.71
62011;BME280;47967;51.756;10.174;2023-04-30T18:27:54;100180.97;;;13.03;45.61
62011;BME280;47967;51.756;10.174;2023-04-30T18:31:57;100188.25;;;12.89;45.58
62011;BME280;47967;51.756;10.174;2023-04-30T18:36:00;100195.88;;;12.65;45.43
62011;BME280;47967;51.756;10.174;2023-04-30T18:40:08;100187.78;;;12.72;44.80
62011;BME280;47967;51.756;10.174;2023-04-30T18:44:11;100199.38;;;12.53;44.76
62011;BME280;47967;51.756;10.174;2023-04-30T18:48:14;100201.16;;;12.32;45.21
62011;BME280;47967;51.756;10.174;2023-04-30T18:52:19;100198.81;;;12.22;44.85
62011;BME280;47967;51.756;10.174;2023-04-30T18:56:23;100197.53;;;12.18;44.74
62011;BME280;47967;51.756;10.174;2023-04-30T19:00:25;100207.25;;;12.06;46.28
62011;BME280;47967;51.756;10.174;2023-04-30T19:04:28;100205.56;;;12.05;45.93
62011;BME280;47967;51.756;10.174;2023-04-30T19:08:30;100208.13;;;12.13;44.73
62011;BME280;47967;51.756;10.174;2023-04-30T19:12:34;100213.75;;;12.11;45.36
62011;BME280;47967;51.756;10.174;2023-04-30T19:16:37;100216.25;;;11.84;47.16
62011;BME280;47967;51.756;10.174;2023-04-30T19:20:39;100219.09;;;11.48;49.50
62011;BME280;47967;51.756;10.174;2023-04-30T19:24:43;100235.28;;;11.04;51.94
62011;BME280;47967;51.756;10.174;2023-04-30T19:28:47;100225.25;;;10.77;53.96
62011;BME280;47967;51.756;10.174;2023-04-30T19:32:49;100225.00;;;10.41;55.02
62011;BME280;47967;51.756;10.174;2023-04-30T19:36:52;100220.06;;;10.15;56.69
62011;BME280;47967;51.756;10.174;2023-04-30T19:40:55;100222.84;;;10.07;57.33
62011;BME280;47967;51.756;10.174;2023-04-30T19:44:59;100231.56;;;9.79;56.54
62011;BME280;47967;51.756;10.174;2023-04-30T19:49:02;100224.00;;;9.59;57.80
62011;BME280;47967;51.756;10.174;2023-04-30T19:53:04;100228.63;;;9.51;57.90
62011;BME280;47967;51.756;10.174;2023-04-30T19:57:07;100235.28;;;9.40;59.65
62011;BME280;47967;51.756;10.174;2023-04-30T20:01:11;100235.44;;;9.38;59.95
62011;BME280;47967;51.756;10.174;2023-04-30T20:05:14;100241.84;;;9.14;60.90
62011;BME280;47967;51.756;10.174;2023-04-30T20:09:17;100230.81;;;8.77;62.30
62011;BME280;47967;51.756;10.174;2023-04-30T20:13:20;100233.38;;;8.71;62.40
62011;BME280;47967;51.756;10.174;2023-04-30T20:17:26;100233.81;;;8.43;62.01
62011;BME280;47967;51.756;10.174;2023-04-30T20:21:28;100232.31;;;8.40;63.11
62011;BME280;47967;51.756;10.174;2023-04-30T20:25:32;100229.84;;;8.22;63.66
62011;BME280;47967;51.756;10.174;2023-04-30T20:29:35;100232.56;;;8.14;64.25
62011;BME280;47967;51.756;10.174;2023-04-30T20:33:41;100223.94;;;7.79;65.40
62011;BME280;47967;51.756;10.174;2023-04-30T20:37:44;100232.66;;;7.81;65.42
62011;BME280;47967;51.756;10.174;2023-04-30T20:41:49;100220.22;;;7.80;65.03
62011;BME280;47967;51.756;10.174;2023-04-30T20:45:54;100217.41;;;7.73;64.57
62011;BME280;47967;51.756;10.174;2023-04-30T20:49:58;100217.72;;;7.78;62.92
62011;BME280;47967;51.756;10.174;2023-04-30T20:54:01;100210.84;;;7.67;64.57
62011;BME280;47967;51.756;10.174;2023-04-30T20:58:04;100215.25;;;7.44;65.38
